Avalon Express — WDD7919 — position and weather

sailwx.info

Track history (hours):
 
Tides and Currents Weather Stations Pressure Air Temp Water Temp Dewpoint Dewpoint Depression Visibility Wind Speed Wind Dir Waves Ship Positions

Avalon Express

Owner: RGWT INC, San Pedro, CA. More information available from US FCC via Universal Licensing System and Coast Guard Vessel Documentation Center.

Last reported at 2016-Jul-24 17:27 UTC. Time now 2016-Jul-24 18:28 UTC.
Position N 33°29' W 118°17'.

Type: High speed craft. MMSI: 367192940.

Date/timePositionNaut miles runAvg speedWind from/ knotsBaromVisibWave heightAir tempDewpointWater temp
2016-Jul-24 17:27N 33°29' W 118°17'1617.9
2016-Jul-24 16:33N 33°45' W 118°16'0 0.1
2016-Jul-24 15:32N 33°45' W 118°16'0 0.0
2016-Jul-24 14:34N 33°45' W 118°16'0 0.0
2016-Jul-24 13:34N 33°45' W 118°16'0 0.0
2016-Jul-24 05:33N 33°45' W 118°16'0 0.0
2016-Jul-24 04:33N 33°45' W 118°16'1919.4
2016-Jul-24 03:33N 33°26' W 118°18'5 4.4
2016-Jul-24 02:29N 33°21' W 118°19'2323.1
2016-Jul-24 01:30N 33°44' W 118°16'1 1.3
2016-Jul-24 00:31N 33°45' W 118°16'7 7.0
2016-Jul-23 23:33N 33°38' W 118°16'1817.7
2016-Jul-23 22:33N 33°21' W 118°19'11 9.8
2016-Jul-23 21:29N 33°27' W 118°30'2021.2
2016-Jul-23 20:32N 33°43' W 118°16'2 1.6
2016-Jul-23 19:33N 33°45' W 118°16'5 5.0
2016-Jul-23 18:34N 33°40' W 118°15'2019.4
2016-Jul-23 17:33N 33°21' W 118°19'1818.5
2016-Jul-23 16:34N 33°39' W 118°16'6 0.1
2016-Jul-21 14:33N 33°45' W 118°16'0 0.1
2016-Jul-21 13:33N 33°45' W 118°16'0 0.1
2016-Jul-21 12:33N 33°45' W 118°16'0 0.0
2016-Jul-21 11:33N 33°45' W 118°16'0 0.0
2016-Jul-21 03:33N 33°45' W 118°16'0 0.1
2016-Jul-21 02:33N 33°45' W 118°16'5 5.1
2016-Jul-21 01:34N 33°40' W 118°15'2019.5
2016-Jul-21 00:33N 33°21' W 118°19'11 8.9
2016-Jul-20 23:21N 33°27' W 118°29'2024.7
2016-Jul-20 22:34N 33°43' W 118°16'2 1.9
2016-Jul-20 21:33N 33°45' W 118°16'2 1.7
2016-Jul-20 20:34N 33°43' W 118°16'2322.7
2016-Jul-20 19:33N 33°21' W 118°19'9 9.5
2016-Jul-20 18:34N 33°30' W 118°17'1514.8
2016-Jul-20 17:33N 33°45' W 118°16'0 0.0
2016-Jul-20 02:04N 33°45' W 118°16'510.4
2016-Jul-20 01:34N 33°40' W 118°15'1919.4
2016-Jul-20 00:33N 33°21' W 118°19'10 8.5
2016-Jul-19 23:21N 33°27' W 118°29'1924.6
2016-Jul-19 22:34N 33°43' W 118°16'2 2.2
2016-Jul-19 21:33N 33°45' W 118°16'2 1.9
2016-Jul-19 20:34N 33°43' W 118°16'2322.5
2016-Jul-19 19:33N 33°21' W 118°19'1010.4
2016-Jul-19 18:34N 33°31' W 118°17'1414.1
2016-Jul-19 17:33N 33°45' W 118°16'0 0.1
2016-Jul-19 16:28N 33°45' W 118°16'0 0.1
2016-Jul-19 15:31N 33°45' W 118°16'0 0.0
2016-Jul-19 14:26N 33°45' W 118°16'0 0.1
2016-Jul-19 13:32N 33°45' W 118°16'0 0.1
2016-Jul-19 12:33N 33°45' W 118°16'0 0.0
2016-Jul-18 21:08N 33°45' W 118°16'0 0.1
2016-Jul-18 20:33N 33°45' W 118°16'0 0.0
2016-Jul-18 19:29N 33°45' W 118°16'1010.6
2016-Jul-18 18:33N 33°36' W 118°21'1 0.5
2016-Jul-18 16:33N 33°35' W 118°22'1110.5
2016-Jul-18 15:33N 33°45' W 118°16'0 0.1
2016-Jul-18 14:33N 33°45' W 118°16'0 0.0
2016-Jul-18 04:33N 33°45' W 118°16'4 3.7
2016-Jul-18 03:34N 33°42' W 118°15'2118.6
2016-Jul-18 02:25N 33°21' W 118°19'1921.9
2016-Jul-18 01:34N 33°39' W 118°15'4 3.0
2016-Jul-18 00:10N 33°43' W 118°16'1622.9
2016-Jul-17 23:28N 33°27' W 118°17'5 6.0
2016-Jul-17 22:33N 33°26' W 118°24'4 4.4
2016-Jul-17 21:34N 33°28' W 118°28'1918.1
2016-Jul-17 20:30N 33°45' W 118°16'1 1.4
2016-Jul-17 19:28N 33°43' W 118°16'2224.1
2016-Jul-17 18:33N 33°22' W 118°19'3 2.9
2016-Jul-17 17:33N 33°24' W 118°19'2020.3
2016-Jul-17 16:33N 33°45' W 118°16'0 0.1
2016-Jul-17 14:20N 33°45' W 118°16'0 0.1
2016-Jul-17 13:33N 33°45' W 118°16'0 0.1
2016-Jul-17 12:33N 33°45' W 118°16'0 0.0
2016-Jul-17 04:34N 33°45' W 118°16'0 0.2
2016-Jul-17 03:33N 33°45' W 118°16'1918.9
2016-Jul-17 02:32N 33°25' W 118°18'5 5.1
2016-Jul-17 01:33N 33°26' W 118°24'4 4.4
2016-Jul-17 00:34N 33°30' W 118°27'1817.5
2016-Jul-16 23:33N 33°45' W 118°16'7 6.8
2016-Jul-16 22:34N 33°38' W 118°17'1512.8
2016-Jul-16 21:22N 33°27' W 118°29'1924.3
2016-Jul-16 20:34N 33°42' W 118°15'3 3.1
2016-Jul-16 19:33N 33°45' W 118°16'4 4.4
2016-Jul-16 18:33N 33°41' W 118°15'2019.4
2016-Jul-16 17:30N 33°21' W 118°19'1516.1
2016-Jul-16 16:33N 33°36' W 118°16'9 8.7
2016-Jul-16 15:29N 33°45' W 118°16'0 0.0
2016-Jul-16 13:33N 33°45' W 118°16'0 0.0
2016-Jul-16 12:26N 33°45' W 118°16'0 0.0
2016-Jul-16 04:33N 33°45' W 118°16'0 0.0
2016-Jul-16 03:33N 33°45' W 118°16'1818.5
2016-Jul-16 02:33N 33°27' W 118°18'2 1.8
2016-Jul-16 01:33N 33°28' W 118°18'1716.6
2016-Jul-16 00:33N 33°45' W 118°16'7 6.8
2016-Jul-15 23:33N 33°38' W 118°17'1514.1
2016-Jul-15 22:29N 33°27' W 118°29'1011.2
2016-Jul-15 21:33N 33°21' W 118°19'2322.5
2016-Jul-15 20:33N 33°43' W 118°16'2 1.5
2016-Jul-15 19:31N 33°45' W 118°16'3 2.7
2016-Jul-15 18:33N 33°43' W 118°15'2221.0
2016-Jul-15 17:30N 33°21' W 118°19'1617.0
2016-Jul-15 16:33N 33°36' W 118°16'8 8.3
2016-Jul-15 15:32N 33°45' W 118°16'0 0.0
2016-Jul-15 14:29N 33°45' W 118°16'0 0.0
2016-Jul-15 13:33N 33°45' W 118°16'0 0.0
2016-Jul-15 12:29N 33°45' W 118°16'0 0.0
2016-Jul-15 04:33N 33°45' W 118°16'  
Track history (hours):
 
Tides and Currents Weather Stations Pressure Air Temp Water Temp Dewpoint Dewpoint Depression Visibility Wind Speed Wind Dir Waves Ship Positions

Avalon Express

Owner: RGWT INC, San Pedro, CA. More information available from US FCC via Universal Licensing System and Coast Guard Vessel Documentation Center.

Last reported at 2016-Jul-24 17:27 UTC. Time now 2016-Jul-24 18:28 UTC.
Position N 33°29' W 118°17'.

Type: High speed craft. MMSI: 367192940.

Date/timePositionNaut miles runAvg speedWind from/ knotsBaromVisibWave heightAir tempDewpointWater temp
2016-Jul-24 17:27N 33°29' W 118°17'1617.9
2016-Jul-24 16:33N 33°45' W 118°16'0 0.1
2016-Jul-24 15:32N 33°45' W 118°16'0 0.0
2016-Jul-24 14:34N 33°45' W 118°16'0 0.0
2016-Jul-24 13:34N 33°45' W 118°16'0 0.0
2016-Jul-24 05:33N 33°45' W 118°16'0 0.0
2016-Jul-24 04:33N 33°45' W 118°16'1919.4
2016-Jul-24 03:33N 33°26' W 118°18'5 4.4
2016-Jul-24 02:29N 33°21' W 118°19'2323.1
2016-Jul-24 01:30N 33°44' W 118°16'1 1.3
2016-Jul-24 00:31N 33°45' W 118°16'7 7.0
2016-Jul-23 23:33N 33°38' W 118°16'1817.7
2016-Jul-23 22:33N 33°21' W 118°19'11 9.8
2016-Jul-23 21:29N 33°27' W 118°30'2021.2
2016-Jul-23 20:32N 33°43' W 118°16'2 1.6
2016-Jul-23 19:33N 33°45' W 118°16'5 5.0
2016-Jul-23 18:34N 33°40' W 118°15'2019.4
2016-Jul-23 17:33N 33°21' W 118°19'1818.5
2016-Jul-23 16:34N 33°39' W 118°16'6 0.1
2016-Jul-21 14:33N 33°45' W 118°16'0 0.1
2016-Jul-21 13:33N 33°45' W 118°16'0 0.1
2016-Jul-21 12:33N 33°45' W 118°16'0 0.0
2016-Jul-21 11:33N 33°45' W 118°16'0 0.0
2016-Jul-21 03:33N 33°45' W 118°16'0 0.1
2016-Jul-21 02:33N 33°45' W 118°16'5 5.1
2016-Jul-21 01:34N 33°40' W 118°15'2019.5
2016-Jul-21 00:33N 33°21' W 118°19'11 8.9
2016-Jul-20 23:21N 33°27' W 118°29'2024.7
2016-Jul-20 22:34N 33°43' W 118°16'2 1.9
2016-Jul-20 21:33N 33°45' W 118°16'2 1.7
2016-Jul-20 20:34N 33°43' W 118°16'2322.7
2016-Jul-20 19:33N 33°21' W 118°19'9 9.5
2016-Jul-20 18:34N 33°30' W 118°17'1514.8
2016-Jul-20 17:33N 33°45' W 118°16'0 0.0
2016-Jul-20 02:04N 33°45' W 118°16'510.4
2016-Jul-20 01:34N 33°40' W 118°15'1919.4
2016-Jul-20 00:33N 33°21' W 118°19'10 8.5
2016-Jul-19 23:21N 33°27' W 118°29'1924.6
2016-Jul-19 22:34N 33°43' W 118°16'2 2.2
2016-Jul-19 21:33N 33°45' W 118°16'2 1.9
2016-Jul-19 20:34N 33°43' W 118°16'2322.5
2016-Jul-19 19:33N 33°21' W 118°19'1010.4
2016-Jul-19 18:34N 33°31' W 118°17'1414.1
2016-Jul-19 17:33N 33°45' W 118°16'0 0.1
2016-Jul-19 16:28N 33°45' W 118°16'0 0.1
2016-Jul-19 15:31N 33°45' W 118°16'0 0.0
2016-Jul-19 14:26N 33°45' W 118°16'0 0.1
2016-Jul-19 13:32N 33°45' W 118°16'0 0.1
2016-Jul-19 12:33N 33°45' W 118°16'0 0.0
2016-Jul-18 21:08N 33°45' W 118°16'0 0.1
2016-Jul-18 20:33N 33°45' W 118°16'0 0.0
2016-Jul-18 19:29N 33°45' W 118°16'1010.6
2016-Jul-18 18:33N 33°36' W 118°21'1 0.5
2016-Jul-18 16:33N 33°35' W 118°22'1110.5
2016-Jul-18 15:33N 33°45' W 118°16'0 0.1
2016-Jul-18 14:33N 33°45' W 118°16'0 0.0
2016-Jul-18 04:33N 33°45' W 118°16'4 3.7
2016-Jul-18 03:34N 33°42' W 118°15'2118.6
2016-Jul-18 02:25N 33°21' W 118°19'1921.9
2016-Jul-18 01:34N 33°39' W 118°15'4 3.0
2016-Jul-18 00:10N 33°43' W 118°16'1622.9
2016-Jul-17 23:28N 33°27' W 118°17'5 6.0
2016-Jul-17 22:33N 33°26' W 118°24'4 4.4
2016-Jul-17 21:34N 33°28' W 118°28'1918.1
2016-Jul-17 20:30N 33°45' W 118°16'1 1.4
2016-Jul-17 19:28N 33°43' W 118°16'2224.1
2016-Jul-17 18:33N 33°22' W 118°19'3 2.9
2016-Jul-17 17:33N 33°24' W 118°19'2020.3
2016-Jul-17 16:33N 33°45' W 118°16'0 0.1
2016-Jul-17 14:20N 33°45' W 118°16'0 0.1
2016-Jul-17 13:33N 33°45' W 118°16'0 0.1
2016-Jul-17 12:33N 33°45' W 118°16'0 0.0
2016-Jul-17 04:34N 33°45' W 118°16'0 0.2
2016-Jul-17 03:33N 33°45' W 118°16'1918.9
2016-Jul-17 02:32N 33°25' W 118°18'5 5.1
2016-Jul-17 01:33N 33°26' W 118°24'4 4.4
2016-Jul-17 00:34N 33°30' W 118°27'1817.5
2016-Jul-16 23:33N 33°45' W 118°16'7 6.8
2016-Jul-16 22:34N 33°38' W 118°17'1512.8
2016-Jul-16 21:22N 33°27' W 118°29'1924.3
2016-Jul-16 20:34N 33°42' W 118°15'3 3.1
2016-Jul-16 19:33N 33°45' W 118°16'4 4.4
2016-Jul-16 18:33N 33°41' W 118°15'2019.4
2016-Jul-16 17:30N 33°21' W 118°19'1516.1
2016-Jul-16 16:33N 33°36' W 118°16'9 8.7
2016-Jul-16 15:29N 33°45' W 118°16'0 0.0
2016-Jul-16 13:33N 33°45' W 118°16'0 0.0
2016-Jul-16 12:26N 33°45' W 118°16'0 0.0
2016-Jul-16 04:33N 33°45' W 118°16'0 0.0
2016-Jul-16 03:33N 33°45' W 118°16'1818.5
2016-Jul-16 02:33N 33°27' W 118°18'2 1.8
2016-Jul-16 01:33N 33°28' W 118°18'1716.6
2016-Jul-16 00:33N 33°45' W 118°16'7 6.8
2016-Jul-15 23:33N 33°38' W 118°17'1514.1
2016-Jul-15 22:29N 33°27' W 118°29'1011.2
2016-Jul-15 21:33N 33°21' W 118°19'2322.5
2016-Jul-15 20:33N 33°43' W 118°16'2 1.5
2016-Jul-15 19:31N 33°45' W 118°16'3 2.7
2016-Jul-15 18:33N 33°43' W 118°15'2221.0
2016-Jul-15 17:30N 33°21' W 118°19'1617.0
2016-Jul-15 16:33N 33°36' W 118°16'8 8.3
2016-Jul-15 15:32N 33°45' W 118°16'0 0.0
2016-Jul-15 14:29N 33°45' W 118°16'0 0.0
2016-Jul-15 13:33N 33°45' W 118°16'0 0.0
2016-Jul-15 12:29N 33°45' W 118°16'0 0.0
2016-Jul-15 04:33N 33°45' W 118°16'  

Dump ship's entire track history